Time;durP1;ratioP1;P1;durP2;ratioP2;P2;SDS_P1;SDS_P2;PMS_P1;PMS_P2;Temp;Humidity;BMP_temperature;BMP_pressure;BME280_temperature;BME280_humidity;BME280_pressure;Samples;Min_cycle;Max_cycle;Signal;HPM_P1;HPM_P2
2024/04/23 00:01:53;;;;;;;;;;;19.70;54.90;;;;;;1537091;76;1090;-69
2024/04/23 00:03:55;;;;;;;;;;;19.70;55.00;;;;;;1533344;76;1528;-69
2024/04/23 00:05:57;;;;;;;;;;;19.80;55.00;;;;;;1534987;76;724;-69
2024/04/23 00:07:59;;;;;;;;;;;19.70;55.00;;;;;;1545452;76;781;-72
2024/04/23 00:10:01;;;;;;;;;;;19.80;55.00;;;;;;1537421;76;1162;-72
2024/04/23 00:12:03;;;;;;;;;;;19.70;55.10;;;;;;1542188;76;704;-70
2024/04/23 00:14:05;;;;;;;;;;;19.70;55.10;;;;;;1537935;76;726;-68
2024/04/23 00:16:06;;;;;;;;;;;19.70;55.10;;;;;;1531753;76;1950;-69
2024/04/23 00:18:08;;;;;;;;;;;19.70;55.10;;;;;;1533164;76;1532;-71
2024/04/23 00:20:10;;;;;;;;;;;19.70;55.20;;;;;;1543932;76;1137;-70
2024/04/23 00:22:12;;;;;;;;;;;19.70;55.10;;;;;;1540317;76;729;-71
2024/04/23 00:24:14;;;;;;;;;;;19.70;55.20;;;;;;1546860;76;834;-70
2024/04/23 00:26:16;;;;;;;;;;;19.70;55.20;;;;;;1547709;75;726;-68
2024/04/23 00:28:18;;;;;;;;;;;19.70;55.20;;;;;;1548904;76;784;-69
2024/04/23 00:30:20;;;;;;;;;;;19.70;55.20;;;;;;1539425;75;1195;-68
2024/04/23 00:32:22;;;;;;;;;;;19.70;55.30;;;;;;1534677;76;1577;-68
2024/04/23 00:34:23;;;;;;;;;;;19.70;55.30;;;;;;1549278;76;680;-69
2024/04/23 00:36:25;;;;;;;;;;;19.70;55.30;;;;;;1545343;76;1948;-69
2024/04/23 00:38:27;;;;;;;;;;;19.70;55.30;;;;;;1543238;76;667;-72
2024/04/23 00:40:29;;;;;;;;;;;19.70;55.40;;;;;;1537419;76;1159;-69
2024/04/23 00:42:31;;;;;;;;;;;19.70;55.40;;;;;;1549715;76;684;-68
2024/04/23 00:44:33;;;;;;;;;;;19.70;55.50;;;;;;1559086;76;708;-69
2024/04/23 00:46:35;;;;;;;;;;;19.70;55.50;;;;;;1538796;76;1578;-68
2024/04/23 00:48:37;;;;;;;;;;;19.70;55.50;;;;;;1550047;76;677;-69
2024/04/23 00:50:39;;;;;;;;;;;19.70;55.50;;;;;;1536871;76;1133;-69
2024/04/23 00:52:41;;;;;;;;;;;19.70;55.50;;;;;;1541519;76;869;-68
2024/04/23 00:54:43;;;;;;;;;;;19.70;55.50;;;;;;1546291;76;690;-69
2024/04/23 00:56:45;;;;;;;;;;;19.70;55.50;;;;;;1541300;76;1949;-69
2024/04/23 00:58:47;;;;;;;;;;;19.70;55.50;;;;;;1553805;75;815;-68
2024/04/23 01:00:49;;;;;;;;;;;19.70;55.50;;;;;;1538673;75;1552;-69
2024/04/23 01:02:51;;;;;;;;;;;19.70;55.50;;;;;;1554412;76;813;-68
2024/04/23 01:04:53;;;;;;;;;;;19.70;55.50;;;;;;1545977;76;743;-68
2024/04/23 01:06:55;;;;;;;;;;;19.70;55.50;;;;;;1543776;76;662;-69
2024/04/23 01:08:56;;;;;;;;;;;19.70;55.50;;;;;;1549911;75;735;-69
2024/04/23 01:10:58;;;;;;;;;;;19.70;55.50;;;;;;1541142;76;1141;-68
2024/04/23 01:13:00;;;;;;;;;;;19.70;55.60;;;;;;1549444;76;658;-69
2024/04/23 01:15:02;;;;;;;;;;;19.70;55.60;;;;;;1542515;75;1546;-70
2024/04/23 01:17:04;;;;;;;;;;;19.70;55.60;;;;;;1541696;76;1941;-67
2024/04/23 01:19:06;;;;;;;;;;;19.70;55.60;;;;;;1551618;75;685;-68
2024/04/23 01:21:09;;;;;;;;;;;19.70;55.60;;;;;;1549610;75;1141;-68
2024/04/23 01:23:12;;;;;;;;;;;19.70;55.60;;;;;;1546917;76;702;-69
2024/04/23 01:25:15;;;;;;;;;;;19.70;55.60;;;;;;1536039;75;675;-69
2024/04/23 01:27:16;;;;;;;;;;;19.70;55.60;;;;;;1538755;76;649;-68
2024/04/23 01:29:18;;;;;;;;;;;19.80;55.60;;;;;;1541165;76;1381;-69
2024/04/23 01:31:20;;;;;;;;;;;19.70;55.60;;;;;;1543270;76;1126;-70
2024/04/23 01:33:22;;;;;;;;;;;19.70;55.60;;;;;;1554343;75;777;-72
2024/04/23 01:35:24;;;;;;;;;;;19.70;55.60;;;;;;1551758;76;731;-70
2024/04/23 01:37:26;;;;;;;;;;;19.70;55.60;;;;;;1548323;75;1939;-70
2024/04/23 01:39:28;;;;;;;;;;;19.70;55.60;;;;;;1542079;76;873;-71
2024/04/23 01:41:30;;;;;;;;;;;19.70;55.60;;;;;;1538601;76;1159;-70
2024/04/23 01:43:32;;;;;;;;;;;19.70;55.60;;;;;;1523979;75;1547;-70
2024/04/23 01:45:34;;;;;;;;;;;19.70;55.70;;;;;;1537682;76;732;-69
2024/04/23 01:47:36;;;;;;;;;;;19.70;55.70;;;;;;1527866;76;716;-70
2024/04/23 01:49:37;;;;;;;;;;;19.70;55.60;;;;;;1541463;76;708;-69
2024/04/23 01:51:39;;;;;;;;;;;19.70;55.70;;;;;;1545112;75;1120;-68
2024/04/23 01:53:41;;;;;;;;;;;19.70;55.60;;;;;;1544509;76;776;-69
2024/04/23 01:55:43;;;;;;;;;;;19.70;55.60;;;;;;1540446;76;646;-68
2024/04/23 01:57:45;;;;;;;;;;;19.70;55.60;;;;;;1539977;76;1928;-67
2024/04/23 01:59:49;;;;;;;;;;;19.70;55.70;;;;;;1538517;76;693;-70
2024/04/23 02:01:52;;;;;;;;;;;19.70;55.60;;;;;;1538774;76;1116;-69
2024/04/23 02:03:53;;;;;;;;;;;19.70;55.70;;;;;;1543859;76;734;-69
2024/04/23 02:05:55;;;;;;;;;;;19.70;55.60;;;;;;1537565;76;767;-69
2024/04/23 02:07:57;;;;;;;;;;;19.70;55.60;;;;;;1545322;76;726;-70
2024/04/23 02:09:59;;;;;;;;;;;19.70;55.60;;;;;;1549718;75;762;-73
2024/04/23 02:12:03;;;;;;;;;;;19.70;55.70;;;;;;1535883;76;1539;-69
2024/04/23 02:14:05;;;;;;;;;;;19.70;55.70;;;;;;1541360;76;755;-68
2024/04/23 02:16:07;;;;;;;;;;;19.70;55.60;;;;;;1530222;76;733;-70
2024/04/23 02:18:09;;;;;;;;;;;19.70;55.70;;;;;;1534201;76;1920;-69
2024/04/23 02:20:11;;;;;;;;;;;19.70;55.70;;;;;;1541802;76;1155;-70
2024/04/23 02:22:13;;;;;;;;;;;19.70;55.70;;;;;;1550100;75;824;-70
2024/04/23 02:24:15;;;;;;;;;;;19.70;55.70;;;;;;1538139;76;752;-70
2024/04/23 02:26:17;;;;;;;;;;;19.70;55.70;;;;;;1547138;76;1271;-68
2024/04/23 02:28:19;;;;;;;;;;;19.70;55.70;;;;;;1543151;76;816;-70
2024/04/23 02:30:21;;;;;;;;;;;19.70;55.80;;;;;;1542141;76;1195;-69
2024/04/23 02:32:22;;;;;;;;;;;19.70;55.80;;;;;;1538485;76;637;-69
2024/04/23 02:34:24;;;;;;;;;;;19.70;55.80;;;;;;1543021;76;772;-69
2024/04/23 02:36:26;;;;;;;;;;;19.70;55.80;;;;;;1541080;76;697;-69
2024/04/23 02:38:28;;;;;;;;;;;19.70;55.80;;;;;;1536681;76;1922;-70
2024/04/23 02:40:30;;;;;;;;;;;19.70;55.70;;;;;;1542708;76;1609;-67
2024/04/23 02:42:32;;;;;;;;;;;19.70;55.80;;;;;;1553150;75;793;-72
2024/04/23 02:44:34;;;;;;;;;;;19.70;55.80;;;;;;1549263;76;778;-70
2024/04/23 02:46:35;;;;;;;;;;;19.70;55.80;;;;;;1544233;76;628;-69
2024/04/23 02:48:37;;;;;;;;;;;19.70;55.90;;;;;;1545190;76;673;-70
2024/04/23 02:50:39;;;;;;;;;;;19.70;55.90;;;;;;1536660;76;1164;-71
2024/04/23 02:52:41;;;;;;;;;;;19.70;55.90;;;;;;1552172;76;1577;-73
2024/04/23 02:54:43;;;;;;;;;;;19.70;56.00;;;;;;1555921;76;753;-71
2024/04/23 02:56:47;;;;;;;;;;;19.70;56.00;;;;;;1547885;76;1934;-69
2024/04/23 02:58:48;;;;;;;;;;;19.70;56.00;;;;;;1550249;76;1685;-69
2024/04/23 03:00:50;;;;;;;;;;;19.70;56.00;;;;;;1543677;75;1156;-71
2024/04/23 03:02:52;;;;;;;;;;;19.70;56.00;;;;;;1549332;76;740;-69
2024/04/23 03:04:54;;;;;;;;;;;19.70;56.00;;;;;;1544738;76;715;-70
2024/04/23 03:06:56;;;;;;;;;;;19.60;55.90;;;;;;1550719;76;1576;-70
2024/04/23 03:08:58;;;;;;;;;;;19.70;56.10;;;;;;1544306;76;675;-70
2024/04/23 03:11:00;;;;;;;;;;;19.70;56.10;;;;;;1538899;76;1166;-70
2024/04/23 03:13:02;;;;;;;;;;;19.70;56.20;;;;;;1546510;76;657;-71
2024/04/23 03:15:04;;;;;;;;;;;19.70;56.10;;;;;;1544311;76;790;-70
2024/04/23 03:17:06;;;;;;;;;;;19.70;56.10;;;;;;1536739;76;1916;-71
2024/04/23 03:19:08;;;;;;;;;;;19.70;56.00;;;;;;1538261;76;758;-69
2024/04/23 03:21:10;;;;;;;;;;;19.60;55.90;;;;;;1546126;76;1569;-70
2024/04/23 03:23:11;;;;;;;;;;;19.70;56.00;;;;;;1534374;76;775;-70
2024/04/23 03:25:13;;;;;;;;;;;19.70;56.00;;;;;;1539322;76;726;-71
2024/04/23 03:27:15;;;;;;;;;;;19.70;56.00;;;;;;1547417;76;688;-71
2024/04/23 03:29:18;;;;;;;;;;;19.70;55.90;;;;;;1548841;75;743;-71
2024/04/23 03:31:19;;;;;;;;;;;19.70;55.80;;;;;;1538650;76;1182;-71
2024/04/23 03:33:21;;;;;;;;;;;19.70;55.90;;;;;;1544084;76;670;-70
2024/04/23 03:35:23;;;;;;;;;;;19.70;55.80;;;;;;1536891;76;1592;-70
2024/04/23 03:37:25;;;;;;;;;;;19.70;55.80;;;;;;1542473;76;1924;-71
2024/04/23 03:39:27;;;;;;;;;;;19.70;55.70;;;;;;1545448;75;636;-69
2024/04/23 03:41:29;;;;;;;;;;;19.70;55.70;;;;;;1551676;76;1134;-65
2024/04/23 03:43:31;;;;;;;;;;;19.70;55.70;;;;;;1553346;75;748;-72
2024/04/23 03:45:32;;;;;;;;;;;19.70;55.70;;;;;;1539858;76;704;-71
2024/04/23 03:47:34;;;;;;;;;;;19.60;55.60;;;;;;1550240;76;746;-69
2024/04/23 03:49:36;;;;;;;;;;;19.70;55.70;;;;;;1542002;76;1336;-69
2024/04/23 03:51:38;;;;;;;;;;;19.70;55.70;;;;;;1542837;76;1151;-70
2024/04/23 03:53:40;;;;;;;;;;;19.60;55.50;;;;;;1552107;75;728;-69
2024/04/23 03:55:42;;;;;;;;;;;19.70;55.60;;;;;;1543772;75;809;-67
2024/04/23 03:57:44;;;;;;;;;;;19.60;55.50;;;;;;1552676;75;1943;-68
2024/04/23 03:59:46;;;;;;;;;;;19.60;55.50;;;;;;1536220;76;788;-69
2024/04/23 04:01:53;;;;;;;;;;;19.70;55.70;;;;;;1541823;76;1107;-70
2024/04/23 04:06:11;;;;;;;;;;;19.60;55.60;;;;;;1551001;76;1595;-70
2024/04/23 04:08:13;;;;;;;;;;;19.60;55.50;;;;;;1548792;76;831;-72
2024/04/23 04:10:15;;;;;;;;;;;19.70;55.60;;;;;;1547370;76;1097;-70
2024/04/23 04:12:17;;;;;;;;;;;19.60;55.50;;;;;;1552686;75;612;-68
2024/04/23 04:14:19;;;;;;;;;;;19.70;55.50;;;;;;1555401;75;633;-71
2024/04/23 04:16:21;;;;;;;;;;;19.70;55.50;;;;;;1554938;75;750;-69
2024/04/23 04:18:23;;;;;;;;;;;19.60;55.30;;;;;;1528954;76;1961;-69
2024/04/23 04:20:24;;;;;;;;;;;19.70;55.50;;;;;;1552406;76;1167;-70
2024/04/23 04:22:26;;;;;;;;;;;19.70;55.50;;;;;;1542218;76;805;-69
2024/04/23 04:24:28;;;;;;;;;;;19.70;55.50;;;;;;1549809;76;573;-68
2024/04/23 04:26:30;;;;;;;;;;;19.70;55.60;;;;;;1542989;76;682;-70
2024/04/23 04:28:32;;;;;;;;;;;19.70;55.70;;;;;;1541655;76;790;-71
2024/04/23 04:30:34;;;;;;;;;;;19.60;55.80;;;;;;1554795;76;1198;-71
2024/04/23 04:32:36;;;;;;;;;;;19.70;56.00;;;;;;1543446;75;1567;-69
2024/04/23 04:34:37;;;;;;;;;;;19.70;56.30;;;;;;1538850;76;690;-71
2024/04/23 04:36:39;;;;;;;;;;;19.70;56.30;;;;;;1551754;76;752;-69
2024/04/23 04:38:41;;;;;;;;;;;19.70;56.50;;;;;;1552498;76;1946;-69
2024/04/23 04:40:43;;;;;;;;;;;19.70;56.60;;;;;;1554745;75;1092;-70
2024/04/23 04:42:45;;;;;;;;;;;19.70;57.00;;;;;;1546166;75;682;-69
2024/04/23 04:44:47;;;;;;;;;;;19.80;57.00;;;;;;1537720;76;679;-71
2024/04/23 04:46:49;;;;;;;;;;;19.70;57.10;;;;;;1547838;76;1303;-69
2024/04/23 04:48:50;;;;;;;;;;;19.70;57.60;;;;;;1554671;76;730;-70
2024/04/23 04:50:52;;;;;;;;;;;19.70;57.80;;;;;;1542461;76;1155;-69
2024/04/23 04:52:54;;;;;;;;;;;19.70;57.80;;;;;;1536391;76;880;-68
2024/04/23 04:54:56;;;;;;;;;;;19.70;58.20;;;;;;1541974;76;808;-68
2024/04/23 04:56:58;;;;;;;;;;;19.70;58.30;;;;;;1540768;76;678;-68
2024/04/23 04:59:00;;;;;;;;;;;19.80;58.20;;;;;;1535055;76;1934;-70
2024/04/23 05:01:02;;;;;;;;;;;19.70;58.20;;;;;;1544487;76;1438;-69
2024/04/23 05:03:04;;;;;;;;;;;19.80;58.20;;;;;;1551471;76;745;-69
2024/04/23 05:05:08;;;;;;;;;;;19.80;58.20;;;;;;1544042;75;679;-68
2024/04/23 05:07:09;;;;;;;;;;;19.80;58.10;;;;;;1536109;76;2048;-68
2024/04/23 05:09:11;;;;;;;;;;;19.80;58.10;;;;;;1537430;76;681;-70
2024/04/23 05:11:13;;;;;;;;;;;19.70;58.10;;;;;;1546700;75;1094;-70
2024/04/23 05:13:15;;;;;;;;;;;19.70;58.10;;;;;;1548697;75;1556;-69
2024/04/23 05:15:18;;;;;;;;;;;19.70;58.10;;;;;;1549618;76;735;-71
2024/04/23 05:17:20;;;;;;;;;;;19.70;58.10;;;;;;1547815;76;672;-70
2024/04/23 05:19:21;;;;;;;;;;;19.80;58.10;;;;;;1555453;76;1942;-68
2024/04/23 05:21:23;;;;;;;;;;;19.80;58.10;;;;;;1541858;76;1213;-69
2024/04/23 05:23:25;;;;;;;;;;;19.70;58.10;;;;;;1549660;76;812;-70
2024/04/23 05:25:27;;;;;;;;;;;19.70;58.10;;;;;;1539925;75;684;-70
2024/04/23 05:27:29;;;;;;;;;;;19.80;58.10;;;;;;1538920;76;1509;-70
2024/04/23 05:29:31;;;;;;;;;;;19.70;58.10;;;;;;1549072;76;741;-70
2024/04/23 05:33:53;;;;;;;;;;;19.70;58.10;;;;;;1548167;75;1579;-69
2024/04/23 05:35:55;;;;;;;;;;;19.70;58.10;;;;;;1539002;76;875;-70
2024/04/23 05:37:56;;;;;;;;;;;19.70;58.10;;;;;;1543414;75;1935;-70
2024/04/23 05:39:58;;;;;;;;;;;19.70;58.00;;;;;;1544189;76;860;-68
2024/04/23 05:42:00;;;;;;;;;;;19.70;58.10;;;;;;1531607;76;1583;-68
2024/04/23 05:44:02;;;;;;;;;;;19.70;58.10;;;;;;1547743;76;745;-69
2024/04/23 05:46:04;;;;;;;;;;;19.70;58.00;;;;;;1540907;76;746;-69
2024/04/23 05:48:24;;;;;;;;;;;19.70;58.00;;;;;;1542167;76;777;-69
2024/04/23 05:50:44;;;;;;;;;;;19.70;58.00;;;;;;1533759;76;1168;-71
2024/04/23 05:53:04;;;;;;;;;;;19.70;58.00;;;;;;1548739;75;783;-67
2024/04/23 05:55:24;;;;;;;;;;;19.70;58.10;;;;;;1545407;76;800;-69
2024/04/23 05:57:26;;;;;;;;;;;19.70;58.00;;;;;;1542771;76;692;-70
2024/04/23 05:59:28;;;;;;;;;;;19.70;58.00;;;;;;1548757;76;1946;-69
2024/04/23 06:01:30;;;;;;;;;;;19.70;58.00;;;;;;1544643;75;1143;-68
2024/04/23 06:03:32;;;;;;;;;;;19.70;58.00;;;;;;1542973;76;727;-69
2024/04/23 06:05:34;;;;;;;;;;;19.70;58.00;;;;;;1541534;76;730;-68
2024/04/23 06:07:36;;;;;;;;;;;19.70;58.00;;;;;;1546418;76;724;-67
2024/04/23 06:09:37;;;;;;;;;;;19.70;57.90;;;;;;1551287;75;1584;-67
2024/04/23 06:11:39;;;;;;;;;;;19.70;57.90;;;;;;1544269;76;1139;-68
2024/04/23 06:13:47;;;;;;;;;;;19.70;57.90;;;;;;1548398;75;854;-68
2024/04/23 06:15:49;;;;;;;;;;;19.70;57.90;;;;;;1546723;76;541;-70
2024/04/23 06:17:51;;;;;;;;;;;19.70;57.90;;;;;;1545217;76;1934;-68
2024/04/23 06:19:53;;;;;;;;;;;19.70;57.90;;;;;;1551359;75;806;-70
2024/04/23 06:21:56;;;;;;;;;;;19.70;57.80;;;;;;1555898;75;1124;-70
2024/04/23 06:23:58;;;;;;;;;;;19.60;57.70;;;;;;1541116;75;1265;-70
2024/04/23 06:25:59;;;;;;;;;;;19.70;57.80;;;;;;1557960;76;720;-69
2024/04/23 06:28:01;;;;;;;;;;;19.70;57.80;;;;;;1544167;76;745;-68
2024/04/23 06:30:09;;;;;;;;;;;19.70;57.80;;;;;;1548020;76;1179;-68
2024/04/23 06:32:12;;;;;;;;;;;19.70;57.70;;;;;;1540464;75;733;-68
2024/04/23 06:34:14;;;;;;;;;;;19.70;57.70;;;;;;1550073;76;1086;-68
2024/04/23 06:36:16;;;;;;;;;;;19.60;57.60;;;;;;1536384;75;742;-69
2024/04/23 06:38:18;;;;;;;;;;;19.70;57.60;;;;;;1539363;76;1948;-69
2024/04/23 06:40:20;;;;;;;;;;;19.70;57.10;;;;;;1556194;76;1184;-67
2024/04/23 06:42:22;;;;;;;;;;;19.60;57.00;;;;;;1545097;75;781;-67
2024/04/23 06:44:24;;;;;;;;;;;19.70;57.10;;;;;;1546669;76;569;-69
2024/04/23 06:46:26;;;;;;;;;;;19.70;57.10;;;;;;1544487;76;812;-68
2024/04/23 06:48:28;;;;;;;;;;;19.60;56.90;;;;;;1533143;76;675;-68
2024/04/23 06:50:30;;;;;;;;;;;19.70;57.10;;;;;;1535067;76;1153;-69
2024/04/23 06:52:32;;;;;;;;;;;19.70;57.00;;;;;;1544009;76;1531;-70
2024/04/23 06:54:34;;;;;;;;;;;19.70;57.10;;;;;;1553920;75;617;-68
2024/04/23 06:56:35;;;;;;;;;;;19.60;56.90;;;;;;1543964;76;708;-68
2024/04/23 06:58:37;;;;;;;;;;;19.70;57.00;;;;;;1556595;75;1951;-69
2024/04/23 07:00:39;;;;;;;;;;;19.70;57.00;;;;;;1538266;76;1181;-69
2024/04/23 07:02:41;;;;;;;;;;;19.60;56.80;;;;;;1546981;76;870;-68
2024/04/23 07:04:43;;;;;;;;;;;19.60;56.80;;;;;;1543780;75;625;-69
2024/04/23 07:06:45;;;;;;;;;;;19.60;56.80;;;;;;1532623;76;1549;-70
2024/04/23 07:08:47;;;;;;;;;;;19.60;56.80;;;;;;1554890;76;725;-70
2024/04/23 07:10:50;;;;;;;;;;;19.60;56.80;;;;;;1548702;76;1169;-69
2024/04/23 07:12:52;;;;;;;;;;;19.60;56.70;;;;;;1551873;75;737;-69
2024/04/23 07:14:53;;;;;;;;;;;19.60;56.70;;;;;;1538385;76;694;-70
2024/04/23 07:16:55;;;;;;;;;;;19.60;56.70;;;;;;1559305;75;797;-68
2024/04/23 07:18:57;;;;;;;;;;;19.60;56.70;;;;;;1543002;75;1940;-68
2024/04/23 07:20:59;;;;;;;;;;;19.60;56.70;;;;;;1546371;76;1331;-68
2024/04/23 07:23:01;;;;;;;;;;;19.70;56.80;;;;;;1540326;76;707;-68
2024/04/23 07:25:03;;;;;;;;;;;19.60;56.60;;;;;;1544001;76;798;-68
2024/04/23 07:27:05;;;;;;;;;;;19.60;56.60;;;;;;1539508;76;698;-67
2024/04/23 07:29:07;;;;;;;;;;;19.60;56.60;;;;;;1545737;76;667;-69
2024/04/23 07:31:09;;;;;;;;;;;19.60;56.50;;;;;;1546719;76;1158;-70
2024/04/23 07:33:11;;;;;;;;;;;19.60;56.50;;;;;;1550840;76;683;-68
2024/04/23 07:35:13;;;;;;;;;;;19.60;56.50;;;;;;1544574;76;1524;-68
2024/04/23 07:37:14;;;;;;;;;;;19.60;56.50;;;;;;1553733;76;745;-68
2024/04/23 07:39:17;;;;;;;;;;;19.60;56.50;;;;;;1545712;76;1926;-68
2024/04/23 07:41:19;;;;;;;;;;;19.60;56.50;;;;;;1541174;76;1179;-68
2024/04/23 07:43:21;;;;;;;;;;;19.60;56.50;;;;;;1547560;75;745;-68
2024/04/23 07:45:23;;;;;;;;;;;19.60;56.50;;;;;;1544119;76;699;-68
2024/04/23 07:47:25;;;;;;;;;;;19.60;56.50;;;;;;1549562;75;725;-67
2024/04/23 07:49:27;;;;;;;;;;;19.60;56.40;;;;;;1541474;76;1635;-69
2024/04/23 07:51:30;;;;;;;;;;;19.60;56.50;;;;;;1536232;76;1159;-69
2024/04/23 07:53:33;;;;;;;;;;;19.60;56.40;;;;;;1539834;76;737;-68
2024/04/23 07:55:35;;;;;;;;;;;19.60;56.40;;;;;;1539356;76;811;-70
2024/04/23 07:57:37;;;;;;;;;;;19.60;56.40;;;;;;1556969;76;702;-71
2024/04/23 07:59:38;;;;;;;;;;;19.60;56.40;;;;;;1553928;75;1962;-68
2024/04/23 08:01:40;;;;;;;;;;;19.60;56.40;;;;;;1531933;75;1155;-68
2024/04/23 08:03:42;;;;;;;;;;;19.60;56.40;;;;;;1532663;76;1538;-68
2024/04/23 08:05:44;;;;;;;;;;;19.60;56.30;;;;;;1548204;76;793;-68
2024/04/23 08:07:46;;;;;;;;;;;19.60;56.30;;;;;;1541224;76;724;-68
2024/04/23 08:09:48;;;;;;;;;;;19.60;56.30;;;;;;1536197;75;630;-68
2024/04/23 08:11:50;;;;;;;;;;;19.60;56.30;;;;;;1541976;76;1112;-68
2024/04/23 08:13:52;;;;;;;;;;;19.60;56.30;;;;;;1544483;76;799;-70
2024/04/23 08:15:55;;;;;;;;;;;19.50;56.30;;;;;;1532482;75;760;-69
2024/04/23 08:17:57;;;;;;;;;;;19.60;56.30;;;;;;1537037;76;1476;-68
2024/04/23 08:19:59;;;;;;;;;;;19.60;56.30;;;;;;1546278;76;1968;-68
2024/04/23 08:22:01;;;;;;;;;;;19.60;56.30;;;;;;1555571;76;1177;-70
2024/04/23 08:24:03;;;;;;;;;;;19.60;56.30;;;;;;1546375;75;742;-68
2024/04/23 08:26:14;;;;;;;;;;;19.60;56.30;;;;;;1539629;75;704;-69
2024/04/23 08:28:14;;;;;;;;;;;19.60;56.30;;;;;;1555767;75;1621;-67
2024/04/23 08:30:19;;;;;;;;;;;19.60;56.30;;;;;;1556628;76;1598;-71
2024/04/23 08:32:21;;;;;;;;;;;19.60;56.20;;;;;;1535745;76;1699;-68
2024/04/23 08:34:23;;;;;;;;;;;19.60;56.20;;;;;;1539101;76;720;-68
2024/04/23 08:36:24;;;;;;;;;;;19.60;56.20;;;;;;1543273;76;734;-68
2024/04/23 08:38:26;;;;;;;;;;;19.60;56.20;;;;;;1559429;75;784;-70
2024/04/23 08:40:28;;;;;;;;;;;19.60;56.20;;;;;;1541595;76;1949;-68
2024/04/23 08:42:30;;;;;;;;;;;19.60;56.20;;;;;;1542046;76;684;-69
2024/04/23 08:44:32;;;;;;;;;;;19.50;56.10;;;;;;1544947;76;1560;-69
2024/04/23 08:46:34;;;;;;;;;;;19.60;56.10;;;;;;1539552;76;783;-67
2024/04/23 08:48:39;;;;;;;;;;;19.60;56.10;;;;;;1555375;76;732;-68
2024/04/23 08:50:40;;;;;;;;;;;19.60;56.10;;;;;;1539732;75;1703;-68
2024/04/23 08:52:42;;;;;;;;;;;19.60;56.10;;;;;;1535009;76;740;-68
2024/04/23 08:54:44;;;;;;;;;;;19.60;56.10;;;;;;1532981;76;775;-72
2024/04/23 08:56:45;;;;;;;;;;;19.80;56.20;;;;;;1546709;75;728;-69
2024/04/23 08:58:47;;;;;;;;;;;19.60;56.10;;;;;;1552355;75;1536;-68
2024/04/23 09:00:50;;;;;;;;;;;19.60;56.10;;;;;;1536184;76;1131;-69
2024/04/23 09:02:51;;;;;;;;;;;19.60;56.10;;;;;;1554953;75;673;-68
2024/04/23 09:04:53;;;;;;;;;;;19.60;56.00;;;;;;1553329;75;702;-69
2024/04/23 09:06:56;;;;;;;;;;;19.60;56.00;;;;;;1551153;75;630;-70
2024/04/23 09:08:58;;;;;;;;;;;19.60;56.00;;;;;;1539862;75;802;-68
2024/04/23 09:11:00;;;;;;;;;;;19.90;56.20;;;;;;1551784;75;1152;-70
2024/04/23 09:13:03;;;;;;;;;;;19.70;56.10;;;;;;1540081;76;1572;-70
2024/04/23 09:15:06;;;;;;;;;;;19.60;56.00;;;;;;1546501;76;718;-68
2024/04/23 09:17:07;;;;;;;;;;;19.90;56.20;;;;;;1543093;76;706;-68
2024/04/23 09:19:09;;;;;;;;;;;19.60;56.00;;;;;;1537500;76;1942;-67
2024/04/23 09:21:11;;;;;;;;;;;19.60;56.00;;;;;;1540779;75;1140;-68
2024/04/23 09:23:13;;;;;;;;;;;19.60;55.90;;;;;;1534063;75;841;-67
2024/04/23 09:25:15;;;;;;;;;;;19.60;55.90;;;;;;1532459;76;797;-68
2024/04/23 09:27:17;;;;;;;;;;;19.60;55.90;;;;;;1538881;76;1604;-70
2024/04/23 09:29:19;;;;;;;;;;;19.60;55.90;;;;;;1541297;76;779;-68
2024/04/23 09:31:21;;;;;;;;;;;19.50;55.90;;;;;;1549052;75;1145;-68
2024/04/23 09:33:23;;;;;;;;;;;19.60;55.80;;;;;;1544765;76;671;-68
2024/04/23 09:35:25;;;;;;;;;;;19.60;55.90;;;;;;1540569;75;836;-68
2024/04/23 09:37:27;;;;;;;;;;;19.60;55.80;;;;;;1545171;76;670;-68
2024/04/23 09:39:28;;;;;;;;;;;19.60;55.90;;;;;;1549091;76;1916;-69
2024/04/23 09:41:31;;;;;;;;;;;19.60;55.80;;;;;;1533049;76;1585;-69
2024/04/23 09:43:33;;;;;;;;;;;19.90;56.00;;;;;;1551946;76;744;-68
2024/04/23 09:45:35;;;;;;;;;;;19.60;55.80;;;;;;1536546;75;676;-68
2024/04/23 09:47:40;;;;;;;;;;;19.60;55.80;;;;;;1515638;77;744;-70
2024/04/23 09:49:44;;;;;;;;;;;19.60;55.70;;;;;;1549067;76;715;-72
2024/04/23 09:51:47;;;;;;;;;;;19.60;55.70;;;;;;1527084;76;1995;-66
2024/04/23 09:53:49;;;;;;;;;;;19.60;55.70;;;;;;1540763;76;724;-71
2024/04/23 09:56:03;;;;;;;;;;;19.60;55.70;;;;;;1537198;76;1619;-69
2024/04/23 09:58:06;;;;;;;;;;;19.50;55.70;;;;;;1547639;76;778;-71
2024/04/23 10:00:10;;;;;;;;;;;19.70;55.80;;;;;;1557400;75;1924;-68
2024/04/23 10:02:12;;;;;;;;;;;19.70;55.70;;;;;;1548135;76;1643;-69
2024/04/23 10:04:13;;;;;;;;;;;19.60;55.60;;;;;;1546714;76;806;-70
2024/04/23 10:06:18;;;;;;;;;;;19.60;55.70;;;;;;1544778;75;703;-68
2024/04/23 10:08:27;;;;;;;;;;;19.60;55.60;;;;;;1550674;76;712;-69
2024/04/23 10:10:37;;;;;;;;;;;19.70;55.80;;;;;;1538920;76;2095;-69
2024/04/23 10:12:40;;;;;;;;;;;19.50;55.60;;;;;;1532525;76;1194;-72
2024/04/23 10:14:43;;;;;;;;;;;19.60;55.50;;;;;;1548188;76;605;-69
2024/04/23 10:16:46;;;;;;;;;;;19.50;55.60;;;;;;1548692;76;743;-69
2024/04/23 10:18:50;;;;;;;;;;;19.60;55.50;;;;;;1539003;76;1827;-72
2024/04/23 10:20:52;;;;;;;;;;;19.60;55.50;;;;;;1544675;76;1958;-68
2024/04/23 10:22:54;;;;;;;;;;;19.60;55.60;;;;;;1541877;76;1570;-69
2024/04/23 10:24:56;;;;;;;;;;;19.60;55.50;;;;;;1538143;76;791;-69
2024/04/23 10:26:58;;;;;;;;;;;19.60;55.50;;;;;;1542550;76;932;-69
2024/04/23 10:29:00;;;;;;;;;;;19.60;55.50;;;;;;1549185;76;787;-69
2024/04/23 10:31:02;;;;;;;;;;;19.60;55.50;;;;;;1546258;76;1174;-69
2024/04/23 10:33:04;;;;;;;;;;;19.60;55.50;;;;;;1551184;75;688;-71
2024/04/23 10:35:06;;;;;;;;;;;19.60;55.50;;;;;;1540576;76;791;-69
2024/04/23 10:37:08;;;;;;;;;;;19.60;55.50;;;;;;1539826;76;1518;-70
2024/04/23 10:39:14;;;;;;;;;;;19.60;55.50;;;;;;1546032;76;678;-68
2024/04/23 10:41:17;;;;;;;;;;;19.60;55.50;;;;;;1550993;75;1929;-70
2024/04/23 10:43:19;;;;;;;;;;;19.60;55.40;;;;;;1549471;76;701;-68
2024/04/23 10:45:21;;;;;;;;;;;19.60;55.50;;;;;;1546366;76;725;-70
2024/04/23 10:47:22;;;;;;;;;;;19.60;55.50;;;;;;1551354;75;592;-69
2024/04/23 10:49:28;;;;;;;;;;;19.50;55.50;;;;;;1546696;76;800;-72
2024/04/23 10:51:29;;;;;;;;;;;19.60;55.40;;;;;;1529771;76;1560;-72
2024/04/23 10:53:32;;;;;;;;;;;19.60;55.40;;;;;;1530952;77;1285;-68
2024/04/23 10:55:33;;;;;;;;;;;19.60;55.50;;;;;;1553919;76;752;-69
2024/04/23 10:57:35;;;;;;;;;;;19.50;55.50;;;;;;1536669;76;1027;-68
2024/04/23 10:59:37;;;;;;;;;;;19.50;55.40;;;;;;1509211;77;1937;-70
2024/04/23 11:01:50;;;;;;;;;;;19.60;55.40;;;;;;1539674;76;1131;-69
2024/04/23 11:03:55;;;;;;;;;;;19.60;55.40;;;;;;1540197;76;703;-69
2024/04/23 11:05:57;;;;;;;;;;;19.60;55.40;;;;;;1536269;76;1445;-68
2024/04/23 11:08:06;;;;;;;;;;;19.60;55.40;;;;;;1541915;76;768;-69
2024/04/23 11:10:08;;;;;;;;;;;19.60;55.30;;;;;;1538096;76;1154;-69
2024/04/23 11:12:19;;;;;;;;;;;19.50;55.40;;;;;;1523026;76;770;-68
2024/04/23 11:14:37;;;;;;;;;;;19.60;55.30;;;;;;1543225;75;748;-68
2024/04/23 11:16:39;;;;;;;;;;;19.60;55.40;;;;;;1555449;75;689;-70
2024/04/23 11:18:44;;;;;;;;;;;19.60;55.40;;;;;;1542502;76;804;-70
2024/04/23 11:20:47;;;;;;;;;;;19.50;55.30;;;;;;1541561;76;1932;-71
2024/04/23 11:22:50;;;;;;;;;;;19.50;55.30;;;;;;1545283;76;714;-68
2024/04/23 11:24:56;;;;;;;;;;;19.50;55.30;;;;;;1550204;75;1791;-70
2024/04/23 11:26:57;;;;;;;;;;;19.60;55.30;;;;;;1559764;75;823;-69
2024/04/23 11:28:59;;;;;;;;;;;19.50;55.40;;;;;;1540535;76;733;-72
2024/04/23 11:31:01;;;;;;;;;;;19.60;55.30;;;;;;1542962;75;1169;-68
2024/04/23 11:33:03;;;;;;;;;;;19.60;55.30;;;;;;1541898;75;772;-69
2024/04/23 11:35:09;;;;;;;;;;;19.50;55.30;;;;;;1555676;76;1778;-68
2024/04/23 11:37:11;;;;;;;;;;;19.60;55.30;;;;;;1549088;76;789;-69
2024/04/23 11:39:15;;;;;;;;;;;19.50;55.30;;;;;;1538794;76;600;-68
2024/04/23 11:41:18;;;;;;;;;;;19.60;55.20;;;;;;1554589;75;1939;-71
2024/04/23 11:43:20;;;;;;;;;;;19.50;55.30;;;;;;1553494;75;750;-71
2024/04/23 11:45:21;;;;;;;;;;;19.50;55.20;;;;;;1546504;76;748;-68
2024/04/23 11:47:28;;;;;;;;;;;19.60;55.20;;;;;;1540720;76;1546;-69
2024/04/23 11:49:31;;;;;;;;;;;19.50;55.20;;;;;;1551746;76;698;-68
2024/04/23 11:51:33;;;;;;;;;;;19.60;55.20;;;;;;1550603;75;1162;-69
2024/04/23 11:53:35;;;;;;;;;;;19.50;55.20;;;;;;1538837;76;737;-72
2024/04/23 11:55:37;;;;;;;;;;;19.50;55.20;;;;;;1551705;76;679;-68
2024/04/23 11:57:39;;;;;;;;;;;19.50;55.20;;;;;;1543216;76;692;-67
2024/04/23 11:59:45;;;;;;;;;;;19.60;55.20;;;;;;1541831;75;858;-69
2024/04/23 12:01:44;;;;;;;;;;;19.50;55.20;;;;;;1541657;75;1915;-68
2024/04/23 12:03:46;;;;;;;;;;;19.60;55.20;;;;;;1549492;76;733;-69
2024/04/23 12:05:48;;;;;;;;;;;19.60;55.20;;;;;;1552695;76;596;-71
2024/04/23 12:07:50;;;;;;;;;;;19.60;55.20;;;;;;1549283;76;770;-71
2024/04/23 12:09:52;;;;;;;;;;;19.50;55.10;;;;;;1545203;75;743;-69
2024/04/23 12:11:54;;;;;;;;;;;19.60;55.20;;;;;;1540265;75;1117;-69
2024/04/23 12:13:56;;;;;;;;;;;19.60;55.10;;;;;;1549080;75;791;-68
2024/04/23 12:15:59;;;;;;;;;;;19.60;55.20;;;;;;1549104;75;1341;-68